sensor_id;sensor_type;location;lat;lon;timestamp;pressure;altitude;pressure_sealevel;temperature;humidity
84760;BME280;74983;51.084;11.086;2024-03-07T00:00:56;100847.03;;;3.96;85.78
84760;BME280;74983;51.084;11.086;2024-03-07T00:03:22;100844.03;;;4.10;85.07
84760;BME280;74983;51.084;11.086;2024-03-07T00:05:49;100846.91;;;4.01;85.36
84760;BME280;74983;51.084;11.086;2024-03-07T00:08:15;100849.38;;;4.04;85.28
84760;BME280;74983;51.084;11.086;2024-03-07T00:10:40;100842.44;;;4.06;85.65
84760;BME280;74983;51.084;11.086;2024-03-07T00:13:06;100849.47;;;4.01;85.13
84760;BME280;74983;51.084;11.086;2024-03-07T00:15:33;100844.00;;;4.11;85.42
84760;BME280;74983;51.084;11.086;2024-03-07T00:17:58;100849.22;;;4.08;85.42
84760;BME280;74983;51.084;11.086;2024-03-07T00:20:25;100850.66;;;4.17;85.16
84760;BME280;74983;51.084;11.086;2024-03-07T00:22:50;100843.84;;;4.16;85.26
84760;BME280;74983;51.084;11.086;2024-03-07T00:25:15;100848.25;;;4.12;84.43
84760;BME280;74983;51.084;11.086;2024-03-07T00:27:44;100838.78;;;4.13;85.01
84760;BME280;74983;51.084;11.086;2024-03-07T00:30:10;100843.09;;;4.12;85.22
84760;BME280;74983;51.084;11.086;2024-03-07T00:32:38;100841.09;;;4.22;85.02
84760;BME280;74983;51.084;11.086;2024-03-07T00:35:05;100834.22;;;4.21;85.11
84760;BME280;74983;51.084;11.086;2024-03-07T00:37:30;100836.56;;;4.28;84.79
84760;BME280;74983;51.084;11.086;2024-03-07T00:39:56;100838.44;;;4.23;84.49
84760;BME280;74983;51.084;11.086;2024-03-07T00:42:21;100832.59;;;4.18;85.51
84760;BME280;74983;51.084;11.086;2024-03-07T00:44:47;100829.75;;;4.26;85.25
84760;BME280;74983;51.084;11.086;2024-03-07T00:47:14;100830.78;;;4.22;85.13
84760;BME280;74983;51.084;11.086;2024-03-07T00:49:39;100829.72;;;4.27;85.35
84760;BME280;74983;51.084;11.086;2024-03-07T00:52:05;100828.78;;;4.30;84.99
84760;BME280;74983;51.084;11.086;2024-03-07T00:54:30;100817.50;;;4.32;84.33
84760;BME280;74983;51.084;11.086;2024-03-07T00:56:55;100825.47;;;4.26;85.66
84760;BME280;74983;51.084;11.086;2024-03-07T00:59:21;100813.19;;;4.33;84.82
84760;BME280;74983;51.084;11.086;2024-03-07T01:01:46;100819.25;;;4.32;85.31
84760;BME280;74983;51.084;11.086;2024-03-07T01:04:11;100813.25;;;4.31;84.80
84760;BME280;74983;51.084;11.086;2024-03-07T01:06:37;100810.63;;;4.33;85.26
84760;BME280;74983;51.084;11.086;2024-03-07T01:09:03;100811.47;;;4.33;84.47
84760;BME280;74983;51.084;11.086;2024-03-07T01:11:28;100808.00;;;4.34;85.00
84760;BME280;74983;51.084;11.086;2024-03-07T01:13:54;100805.34;;;4.37;85.03
84760;BME280;74983;51.084;11.086;2024-03-07T01:16:20;100808.03;;;4.33;84.71
84760;BME280;74983;51.084;11.086;2024-03-07T01:18:46;100807.16;;;4.34;85.29
84760;BME280;74983;51.084;11.086;2024-03-07T01:21:11;100810.50;;;4.36;85.11
84760;BME280;74983;51.084;11.086;2024-03-07T01:23:36;100796.13;;;4.30;85.42
84760;BME280;74983;51.084;11.086;2024-03-07T01:26:02;100807.94;;;4.36;84.98
84760;BME280;74983;51.084;11.086;2024-03-07T01:28:28;100802.69;;;4.39;85.02
84760;BME280;74983;51.084;11.086;2024-03-07T01:30:57;100802.69;;;4.39;85.26
84760;BME280;74983;51.084;11.086;2024-03-07T01:33:23;100799.91;;;4.45;85.29
84760;BME280;74983;51.084;11.086;2024-03-07T01:35:48;100800.88;;;4.42;85.51
84760;BME280;74983;51.084;11.086;2024-03-07T01:38:14;100803.53;;;4.39;85.11
84760;BME280;74983;51.084;11.086;2024-03-07T01:40:40;100808.44;;;4.47;84.83
84760;BME280;74983;51.084;11.086;2024-03-07T01:43:06;100798.13;;;4.47;84.34
84760;BME280;74983;51.084;11.086;2024-03-07T01:45:32;100801.38;;;4.52;84.96
84760;BME280;74983;51.084;11.086;2024-03-07T01:47:57;100798.00;;;4.50;84.92
84760;BME280;74983;51.084;11.086;2024-03-07T01:50:23;100792.16;;;4.45;84.96
84760;BME280;74983;51.084;11.086;2024-03-07T01:52:49;100790.31;;;4.48;84.70
84760;BME280;74983;51.084;11.086;2024-03-07T01:55:17;100795.28;;;4.54;84.26
84760;BME280;74983;51.084;11.086;2024-03-07T01:57:42;100790.25;;;4.51;84.94
84760;BME280;74983;51.084;11.086;2024-03-07T02:00:08;100794.44;;;4.54;84.52
84760;BME280;74983;51.084;11.086;2024-03-07T02:02:34;100796.22;;;4.52;84.40
84760;BME280;74983;51.084;11.086;2024-03-07T02:05:00;100799.53;;;4.55;83.95
84760;BME280;74983;51.084;11.086;2024-03-07T02:07:25;100790.94;;;4.56;84.38
84760;BME280;74983;51.084;11.086;2024-03-07T02:09:59;100789.13;;;4.58;84.67
84760;BME280;74983;51.084;11.086;2024-03-07T02:12:25;100784.97;;;4.54;84.17
84760;BME280;74983;51.084;11.086;2024-03-07T02:14:50;100780.44;;;4.61;84.19
84760;BME280;74983;51.084;11.086;2024-03-07T02:17:15;100773.50;;;4.63;84.43
84760;BME280;74983;51.084;11.086;2024-03-07T02:19:41;100772.53;;;4.66;84.22
84760;BME280;74983;51.084;11.086;2024-03-07T02:22:06;100768.28;;;4.65;83.87
84760;BME280;74983;51.084;11.086;2024-03-07T02:24:31;100766.50;;;4.67;83.99
84760;BME280;74983;51.084;11.086;2024-03-07T02:26:57;100761.22;;;4.70;84.37
84760;BME280;74983;51.084;11.086;2024-03-07T02:29:24;100764.59;;;4.72;84.61
84760;BME280;74983;51.084;11.086;2024-03-07T02:31:49;100763.69;;;4.73;84.19
84760;BME280;74983;51.084;11.086;2024-03-07T02:34:16;100771.34;;;4.76;83.74
84760;BME280;74983;51.084;11.086;2024-03-07T02:36:42;100770.50;;;4.75;83.44
84760;BME280;74983;51.084;11.086;2024-03-07T02:39:07;100766.19;;;4.76;83.28
84760;BME280;74983;51.084;11.086;2024-03-07T02:41:32;100760.06;;;4.78;82.75
84760;BME280;74983;51.084;11.086;2024-03-07T02:43:59;100761.84;;;4.76;83.43
84760;BME280;74983;51.084;11.086;2024-03-07T02:46:26;100751.50;;;4.78;83.47
84760;BME280;74983;51.084;11.086;2024-03-07T02:48:51;100758.38;;;4.77;82.74
84760;BME280;74983;51.084;11.086;2024-03-07T02:51:16;100753.16;;;4.79;83.18
84760;BME280;74983;51.084;11.086;2024-03-07T02:53:42;100752.69;;;4.68;82.46
84760;BME280;74983;51.084;11.086;2024-03-07T02:56:07;100748.31;;;4.70;83.55
84760;BME280;74983;51.084;11.086;2024-03-07T02:58:34;100748.22;;;4.73;83.43
84760;BME280;74983;51.084;11.086;2024-03-07T03:01:00;100751.53;;;4.76;82.50
84760;BME280;74983;51.084;11.086;2024-03-07T03:03:26;100753.00;;;4.83;82.43
84760;BME280;74983;51.084;11.086;2024-03-07T03:05:51;100755.06;;;4.74;82.45
84760;BME280;74983;51.084;11.086;2024-03-07T03:08:17;100753.34;;;4.74;82.71
84760;BME280;74983;51.084;11.086;2024-03-07T03:10:42;100753.91;;;4.82;82.32
84760;BME280;74983;51.084;11.086;2024-03-07T03:13:09;100753.00;;;4.83;82.49
84760;BME280;74983;51.084;11.086;2024-03-07T03:15:34;100748.41;;;4.91;82.06
84760;BME280;74983;51.084;11.086;2024-03-07T03:18:00;100746.78;;;4.89;82.53
84760;BME280;74983;51.084;11.086;2024-03-07T03:20:25;100752.72;;;4.91;82.73
84760;BME280;74983;51.084;11.086;2024-03-07T03:22:52;100749.34;;;4.89;82.44
84760;BME280;74983;51.084;11.086;2024-03-07T03:25:18;100748.13;;;4.76;82.64
84760;BME280;74983;51.084;11.086;2024-03-07T03:27:44;100754.09;;;4.76;83.75
84760;BME280;74983;51.084;11.086;2024-03-07T03:30:09;100751.31;;;4.82;82.72
84760;BME280;74983;51.084;11.086;2024-03-07T03:32:38;100745.84;;;4.91;82.91
84760;BME280;74983;51.084;11.086;2024-03-07T03:35:04;100754.19;;;4.98;82.90
84760;BME280;74983;51.084;11.086;2024-03-07T03:37:29;100749.88;;;4.98;82.82
84760;BME280;74983;51.084;11.086;2024-03-07T03:39:54;100744.03;;;4.93;83.14
84760;BME280;74983;51.084;11.086;2024-03-07T03:42:20;100743.91;;;4.96;82.82
84760;BME280;74983;51.084;11.086;2024-03-07T03:44:46;100755.13;;;4.95;82.93
84760;BME280;74983;51.084;11.086;2024-03-07T03:47:11;100749.75;;;5.01;83.31
84760;BME280;74983;51.084;11.086;2024-03-07T03:49:37;100753.56;;;4.91;84.11
84760;BME280;74983;51.084;11.086;2024-03-07T03:52:02;100751.00;;;4.91;85.55
84760;BME280;74983;51.084;11.086;2024-03-07T03:54:27;100744.03;;;4.93;86.82
84760;BME280;74983;51.084;11.086;2024-03-07T03:56:53;100751.13;;;4.87;87.95
84760;BME280;74983;51.084;11.086;2024-03-07T03:59:18;100750.34;;;4.85;88.57
84760;BME280;74983;51.084;11.086;2024-03-07T04:01:43;100748.69;;;4.84;88.56
84760;BME280;74983;51.084;11.086;2024-03-07T04:04:10;100749.53;;;4.84;89.17
84760;BME280;74983;51.084;11.086;2024-03-07T04:06:35;100753.94;;;4.81;89.41
84760;BME280;74983;51.084;11.086;2024-03-07T04:09:00;100752.09;;;4.84;89.44
84760;BME280;74983;51.084;11.086;2024-03-07T04:11:26;100749.00;;;4.75;90.10
84760;BME280;74983;51.084;11.086;2024-03-07T04:13:51;100752.38;;;4.77;90.45
84760;BME280;74983;51.084;11.086;2024-03-07T04:16:17;100745.31;;;4.82;90.48
84760;BME280;74983;51.084;11.086;2024-03-07T04:18:42;100748.84;;;4.79;90.47
84760;BME280;74983;51.084;11.086;2024-03-07T04:21:07;100746.84;;;4.87;90.56
84760;BME280;74983;51.084;11.086;2024-03-07T04:23:34;100746.03;;;4.85;90.67
84760;BME280;74983;51.084;11.086;2024-03-07T04:25:59;100752.53;;;4.95;90.42
84760;BME280;74983;51.084;11.086;2024-03-07T04:28:25;100743.41;;;4.87;90.93
84760;BME280;74983;51.084;11.086;2024-03-07T04:30:50;100744.38;;;4.84;91.11
84760;BME280;74983;51.084;11.086;2024-03-07T04:33:18;100745.84;;;4.91;91.22
84760;BME280;74983;51.084;11.086;2024-03-07T04:35:44;100742.53;;;4.88;90.89
84760;BME280;74983;51.084;11.086;2024-03-07T04:38:09;100743.47;;;4.85;90.86
84760;BME280;74983;51.084;11.086;2024-03-07T04:40:39;100749.47;;;4.86;91.08
84760;BME280;74983;51.084;11.086;2024-03-07T04:43:05;100745.97;;;4.87;91.42
84760;BME280;74983;51.084;11.086;2024-03-07T04:45:30;100744.91;;;4.92;90.91
84760;BME280;74983;51.084;11.086;2024-03-07T04:47:56;100742.56;;;4.86;91.16
84760;BME280;74983;51.084;11.086;2024-03-07T04:50:21;100741.34;;;4.96;91.15
84760;BME280;74983;51.084;11.086;2024-03-07T04:52:46;100741.16;;;5.01;90.82
84760;BME280;74983;51.084;11.086;2024-03-07T04:55:12;100736.63;;;5.07;90.92
84760;BME280;74983;51.084;11.086;2024-03-07T04:57:38;100741.47;;;4.93;90.80
84760;BME280;74983;51.084;11.086;2024-03-07T05:00:09;100752.50;;;4.74;92.96
84760;BME280;74983;51.084;11.086;2024-03-07T05:02:45;100750.63;;;4.77;93.37
84760;BME280;74983;51.084;11.086;2024-03-07T05:05:11;100747.38;;;4.72;93.78
84760;BME280;74983;51.084;11.086;2024-03-07T05:07:36;100753.53;;;4.68;94.66
84760;BME280;74983;51.084;11.086;2024-03-07T05:10:06;100755.91;;;4.74;94.70
84760;BME280;74983;51.084;11.086;2024-03-07T05:12:32;100749.13;;;4.72;95.22
84760;BME280;74983;51.084;11.086;2024-03-07T05:14:57;100753.84;;;4.59;96.03
84760;BME280;74983;51.084;11.086;2024-03-07T05:17:23;100747.09;;;4.56;95.87
84760;BME280;74983;51.084;11.086;2024-03-07T05:19:48;100758.16;;;4.58;96.20
84760;BME280;74983;51.084;11.086;2024-03-07T05:22:15;100754.81;;;4.56;96.47
84760;BME280;74983;51.084;11.086;2024-03-07T05:24:41;100748.63;;;4.60;96.30
84760;BME280;74983;51.084;11.086;2024-03-07T05:27:08;100754.59;;;4.63;96.33
84760;BME280;74983;51.084;11.086;2024-03-07T05:29:36;100750.53;;;4.55;96.48
84760;BME280;74983;51.084;11.086;2024-03-07T05:32:20;100755.56;;;4.60;96.79
84760;BME280;74983;51.084;11.086;2024-03-07T05:34:45;100754.59;;;4.63;96.65
84760;BME280;74983;51.084;11.086;2024-03-07T05:37:10;100752.31;;;4.53;96.68
84760;BME280;74983;51.084;11.086;2024-03-07T05:39:35;100751.50;;;4.53;97.21
84760;BME280;74983;51.084;11.086;2024-03-07T05:42:01;100751.38;;;4.56;96.99
84760;BME280;74983;51.084;11.086;2024-03-07T05:44:26;100756.53;;;4.56;96.97
84760;BME280;74983;51.084;11.086;2024-03-07T05:46:51;100757.09;;;4.64;96.92
84760;BME280;74983;51.084;11.086;2024-03-07T05:49:16;100756.28;;;4.64;96.89
84760;BME280;74983;51.084;11.086;2024-03-07T05:51:42;100752.97;;;4.60;97.24
84760;BME280;74983;51.084;11.086;2024-03-07T05:54:09;100753.72;;;4.64;97.34
84760;BME280;74983;51.084;11.086;2024-03-07T05:56:35;100753.00;;;4.58;97.06
84760;BME280;74983;51.084;11.086;2024-03-07T05:59:04;100757.09;;;4.64;97.36
84760;BME280;74983;51.084;11.086;2024-03-07T06:01:31;100757.03;;;4.67;96.90
84760;BME280;74983;51.084;11.086;2024-03-07T06:03:58;100757.84;;;4.68;96.96
84760;BME280;74983;51.084;11.086;2024-03-07T06:06:23;100762.00;;;4.72;96.67
84760;BME280;74983;51.084;11.086;2024-03-07T06:08:49;100762.06;;;4.70;96.81
84760;BME280;74983;51.084;11.086;2024-03-07T06:11:14;100766.25;;;4.73;96.58
84760;BME280;74983;51.084;11.086;2024-03-07T06:13:44;100761.09;;;4.73;96.69
84760;BME280;74983;51.084;11.086;2024-03-07T06:16:11;100761.03;;;4.76;96.45
84760;BME280;74983;51.084;11.086;2024-03-07T06:18:36;100758.44;;;4.76;96.78
84760;BME280;74983;51.084;11.086;2024-03-07T06:21:01;100764.38;;;4.78;96.82
84760;BME280;74983;51.084;11.086;2024-03-07T06:23:29;100758.44;;;4.76;96.95
84760;BME280;74983;51.084;11.086;2024-03-07T06:25:55;100757.41;;;4.80;97.21
84760;BME280;74983;51.084;11.086;2024-03-07T06:28:24;100758.94;;;4.85;96.53
84760;BME280;74983;51.084;11.086;2024-03-07T06:30:49;100763.31;;;4.83;96.65
84760;BME280;74983;51.084;11.086;2024-03-07T06:33:14;100765.81;;;4.86;96.65
84760;BME280;74983;51.084;11.086;2024-03-07T06:35:41;100754.88;;;4.78;97.74
84760;BME280;74983;51.084;11.086;2024-03-07T06:38:10;100766.75;;;4.84;97.27
84760;BME280;74983;51.084;11.086;2024-03-07T06:40:36;100761.53;;;4.85;97.45
84760;BME280;74983;51.084;11.086;2024-03-07T06:43:02;100757.16;;;4.87;97.26
84760;BME280;74983;51.084;11.086;2024-03-07T06:45:31;100763.09;;;4.89;97.49
84760;BME280;74983;51.084;11.086;2024-03-07T06:47:56;100763.66;;;4.97;97.77
84760;BME280;74983;51.084;11.086;2024-03-07T06:50:22;100764.63;;;4.95;97.63
84760;BME280;74983;51.084;11.086;2024-03-07T06:52:48;100758.50;;;4.97;97.40
84760;BME280;74983;51.084;11.086;2024-03-07T06:55:15;100755.13;;;4.95;97.38
84760;BME280;74983;51.084;11.086;2024-03-07T06:57:42;100763.50;;;5.02;97.01
84760;BME280;74983;51.084;11.086;2024-03-07T07:00:08;100761.66;;;5.05;96.80
84760;BME280;74983;51.084;11.086;2024-03-07T07:02:39;100759.69;;;5.12;96.70
84760;BME280;74983;51.084;11.086;2024-03-07T07:05:06;100758.91;;;5.10;96.74
84760;BME280;74983;51.084;11.086;2024-03-07T07:07:36;100761.34;;;5.13;96.77
84760;BME280;74983;51.084;11.086;2024-03-07T07:10:02;100763.59;;;5.22;96.41
84760;BME280;74983;51.084;11.086;2024-03-07T07:12:27;100759.09;;;5.27;96.57
84760;BME280;74983;51.084;11.086;2024-03-07T07:14:54;100764.00;;;5.34;96.21
84760;BME280;74983;51.084;11.086;2024-03-07T07:17:19;100759.50;;;5.39;95.84
84760;BME280;74983;51.084;11.086;2024-03-07T07:19:45;100767.19;;;5.41;96.02
84760;BME280;74983;51.084;11.086;2024-03-07T07:22:10;100765.31;;;5.44;95.75
84760;BME280;74983;51.084;11.086;2024-03-07T07:24:37;100762.88;;;5.41;95.04
84760;BME280;74983;51.084;11.086;2024-03-07T07:27:03;100770.50;;;5.44;95.11
84760;BME280;74983;51.084;11.086;2024-03-07T07:29:28;100758.16;;;5.52;95.35
84760;BME280;74983;51.084;11.086;2024-03-07T07:31:54;100764.31;;;5.48;94.18
84760;BME280;74983;51.084;11.086;2024-03-07T07:34:20;100763.25;;;5.54;93.97
84760;BME280;74983;51.084;11.086;2024-03-07T07:36:45;100767.56;;;5.53;93.16
84760;BME280;74983;51.084;11.086;2024-03-07T07:39:10;100757.91;;;5.58;93.37
84760;BME280;74983;51.084;11.086;2024-03-07T07:41:42;100759.19;;;5.70;94.32
84760;BME280;74983;51.084;11.086;2024-03-07T07:44:07;100769.53;;;5.70;94.21
84760;BME280;74983;51.084;11.086;2024-03-07T07:46:33;100756.22;;;5.57;94.35
84760;BME280;74983;51.084;11.086;2024-03-07T07:48:59;100758.56;;;5.63;94.55
84760;BME280;74983;51.084;11.086;2024-03-07T07:51:25;100757.66;;;5.64;94.93
84760;BME280;74983;51.084;11.086;2024-03-07T07:53:55;100762.66;;;5.69;94.77
84760;BME280;74983;51.084;11.086;2024-03-07T07:56:22;100764.56;;;5.64;94.39
84760;BME280;74983;51.084;11.086;2024-03-07T07:58:48;100760.25;;;5.64;94.84
84760;BME280;74983;51.084;11.086;2024-03-07T08:01:14;100754.72;;;5.73;93.97
84760;BME280;74983;51.084;11.086;2024-03-07T08:03:41;100756.16;;;5.81;93.12
84760;BME280;74983;51.084;11.086;2024-03-07T08:06:06;100762.97;;;5.83;92.13
84760;BME280;74983;51.084;11.086;2024-03-07T08:08:31;100744.41;;;5.95;92.10
84760;BME280;74983;51.084;11.086;2024-03-07T08:10:56;100756.81;;;6.07;91.85
84760;BME280;74983;51.084;11.086;2024-03-07T08:13:22;100750.38;;;6.17;91.19
84760;BME280;74983;51.084;11.086;2024-03-07T08:15:47;100752.78;;;6.22;90.46
84760;BME280;74983;51.084;11.086;2024-03-07T08:18:12;100748.91;;;6.52;89.47
84760;BME280;74983;51.084;11.086;2024-03-07T08:20:39;100742.09;;;6.69;87.16
84760;BME280;74983;51.084;11.086;2024-03-07T08:23:04;100753.69;;;6.81;84.49
84760;BME280;74983;51.084;11.086;2024-03-07T08:25:30;100748.34;;;7.04;84.83
84760;BME280;74983;51.084;11.086;2024-03-07T08:27:56;100742.50;;;6.99;84.32
84760;BME280;74983;51.084;11.086;2024-03-07T08:30:23;100748.50;;;7.00;80.88
84760;BME280;74983;51.084;11.086;2024-03-07T08:32:54;100736.72;;;7.13;83.38
84760;BME280;74983;51.084;11.086;2024-03-07T08:35:22;100739.69;;;6.85;80.22
84760;BME280;74983;51.084;11.086;2024-03-07T08:37:48;100742.16;;;6.88;80.13
84760;BME280;74983;51.084;11.086;2024-03-07T08:40:18;100732.81;;;6.84;77.69
84760;BME280;74983;51.084;11.086;2024-03-07T08:42:48;100742.50;;;6.60;78.24
84760;BME280;74983;51.084;11.086;2024-03-07T08:45:13;100743.59;;;6.55;78.01
84760;BME280;74983;51.084;11.086;2024-03-07T08:47:43;100739.00;;;6.61;77.69
84760;BME280;74983;51.084;11.086;2024-03-07T08:50:09;100743.06;;;6.47;76.92
84760;BME280;74983;51.084;11.086;2024-03-07T08:52:35;100745.34;;;6.74;78.67
84760;BME280;74983;51.084;11.086;2024-03-07T08:55:09;100741.75;;;6.77;78.58
84760;BME280;74983;51.084;11.086;2024-03-07T08:57:35;100745.00;;;6.82;77.45
84760;BME280;74983;51.084;11.086;2024-03-07T09:00:02;100742.22;;;6.87;74.56
84760;BME280;74983;51.084;11.086;2024-03-07T09:02:33;100731.38;;;7.16;73.78
84760;BME280;74983;51.084;11.086;2024-03-07T09:05:00;100739.72;;;7.22;71.72
84760;BME280;74983;51.084;11.086;2024-03-07T09:07:25;100738.44;;;7.31;70.37
84760;BME280;74983;51.084;11.086;2024-03-07T09:09:51;100744.75;;;7.44;69.12
84760;BME280;74983;51.084;11.086;2024-03-07T09:12:16;100741.63;;;7.73;71.50
84760;BME280;74983;51.084;11.086;2024-03-07T09:14:41;100732.22;;;7.35;70.50
84760;BME280;74983;51.084;11.086;2024-03-07T09:17:06;100742.75;;;7.32;71.24
84760;BME280;74983;51.084;11.086;2024-03-07T09:19:32;100742.78;;;6.73;71.50
84760;BME280;74983;51.084;11.086;2024-03-07T09:21:57;100741.97;;;6.52;71.23
84760;BME280;74983;51.084;11.086;2024-03-07T09:24:22;100742.97;;;6.50;72.42
84760;BME280;74983;51.084;11.086;2024-03-07T09:26:51;100743.91;;;6.47;72.14
84760;BME280;74983;51.084;11.086;2024-03-07T09:29:17;100733.47;;;7.63;68.58
84760;BME280;74983;51.084;11.086;2024-03-07T09:31:43;100733.34;;;8.18;66.55
84760;BME280;74983;51.084;11.086;2024-03-07T09:34:08;100734.13;;;7.13;66.77
84760;BME280;74983;51.084;11.086;2024-03-07T09:36:34;100734.59;;;8.11;66.40
84760;BME280;74983;51.084;11.086;2024-03-07T09:38:59;100732.47;;;8.70;62.82
84760;BME280;74983;51.084;11.086;2024-03-07T09:41:24;100742.03;;;8.35;57.81
84760;BME280;74983;51.084;11.086;2024-03-07T09:43:51;100720.84;;;8.77;57.19
84760;BME280;74983;51.084;11.086;2024-03-07T09:46:21;100721.94;;;8.05;57.31
84760;BME280;74983;51.084;11.086;2024-03-07T09:48:46;100721.94;;;7.69;60.22
84760;BME280;74983;51.084;11.086;2024-03-07T09:51:13;100726.09;;;7.90;57.67
84760;BME280;74983;51.084;11.086;2024-03-07T09:53:42;100712.16;;;8.93;53.84
84760;BME280;74983;51.084;11.086;2024-03-07T09:56:10;100709.34;;;9.45;53.19
84760;BME280;74983;51.084;11.086;2024-03-07T09:58:39;100709.09;;;9.94;52.72
84760;BME280;74983;51.084;11.086;2024-03-07T10:01:06;100713.41;;;9.02;53.44
84760;BME280;74983;51.084;11.086;2024-03-07T10:03:35;100703.09;;;9.78;54.77
84760;BME280;74983;51.084;11.086;2024-03-07T10:06:01;100695.09;;;10.27;52.34
84760;BME280;74983;51.084;11.086;2024-03-07T10:08:28;100709.06;;;9.65;54.55
84760;BME280;74983;51.084;11.086;2024-03-07T10:10:55;100704.09;;;10.93;53.03
84760;BME280;74983;51.084;11.086;2024-03-07T10:13:21;100716.66;;;10.14;51.82
84760;BME280;74983;51.084;11.086;2024-03-07T10:15:47;100691.09;;;11.05;47.14
84760;BME280;74983;51.084;11.086;2024-03-07T10:18:13;100692.69;;;11.22;51.85
84760;BME280;74983;51.084;11.086;2024-03-07T10:20:39;100701.66;;;9.88;51.92
84760;BME280;74983;51.084;11.086;2024-03-07T10:23:04;100700.44;;;9.18;52.95
84760;BME280;74983;51.084;11.086;2024-03-07T10:25:33;100710.50;;;8.09;55.99
84760;BME280;74983;51.084;11.086;2024-03-07T10:27:58;100712.16;;;8.10;57.18
84760;BME280;74983;51.084;11.086;2024-03-07T10:30:23;100703.34;;;7.61;57.81
84760;BME280;74983;51.084;11.086;2024-03-07T10:32:58;100719.63;;;7.46;58.89
84760;BME280;74983;51.084;11.086;2024-03-07T10:35:24;100715.47;;;7.42;59.10
84760;BME280;74983;51.084;11.086;2024-03-07T10:37:52;100702.69;;;8.60;56.13
84760;BME280;74983;51.084;11.086;2024-03-07T10:40:19;100703.22;;;9.15;53.02
84760;BME280;74983;51.084;11.086;2024-03-07T10:42:47;100713.13;;;9.39;51.19
84760;BME280;74983;51.084;11.086;2024-03-07T10:45:20;100707.09;;;8.75;51.84
84760;BME280;74983;51.084;11.086;2024-03-07T10:47:56;100702.97;;;9.66;49.36
84760;BME280;74983;51.084;11.086;2024-03-07T10:50:43;100709.97;;;9.17;49.96
84760;BME280;74983;51.084;11.086;2024-03-07T10:53:24;100707.38;;;8.19;51.62
84760;BME280;74983;51.084;11.086;2024-03-07T10:56:33;100707.50;;;7.82;53.22
84760;BME280;74983;51.084;11.086;2024-03-07T10:59:07;100711.72;;;7.30;54.30
84760;BME280;74983;51.084;11.086;2024-03-07T11:01:39;100722.28;;;7.07;54.59
84760;BME280;74983;51.084;11.086;2024-03-07T11:04:10;100704.97;;;7.45;55.15
84760;BME280;74983;51.084;11.086;2024-03-07T11:06:40;100705.06;;;7.60;54.24
84760;BME280;74983;51.084;11.086;2024-03-07T11:09:06;100705.34;;;7.90;51.87
84760;BME280;74983;51.084;11.086;2024-03-07T11:11:37;100704.28;;;8.11;53.14
84760;BME280;74983;51.084;11.086;2024-03-07T11:14:03;100711.06;;;8.65;53.27
84760;BME280;74983;51.084;11.086;2024-03-07T11:16:30;100715.28;;;7.99;53.82
84760;BME280;74983;51.084;11.086;2024-03-07T11:19:17;100713.25;;;7.16;54.81
84760;BME280;74983;51.084;11.086;2024-03-07T11:21:43;100718.44;;;6.58;55.94
84760;BME280;74983;51.084;11.086;2024-03-07T11:24:08;100715.25;;;6.72;56.16
84760;BME280;74983;51.084;11.086;2024-03-07T11:26:34;100707.25;;;7.86;53.93
84760;BME280;74983;51.084;11.086;2024-03-07T11:32:11;100709.13;;;7.12;54.79
84760;BME280;74983;51.084;11.086;2024-03-07T11:34:40;100700.72;;;7.44;54.58
84760;BME280;74983;51.084;11.086;2024-03-07T11:37:16;100693.47;;;7.86;55.56
84760;BME280;74983;51.084;11.086;2024-03-07T11:39:47;100683.78;;;7.89;52.61
84760;BME280;74983;51.084;11.086;2024-03-07T11:42:28;100692.31;;;7.91;53.05
84760;BME280;74983;51.084;11.086;2024-03-07T11:44:57;100691.47;;;7.38;54.18
84760;BME280;74983;51.084;11.086;2024-03-07T11:47:34;100690.41;;;7.24;55.68
84760;BME280;74983;51.084;11.086;2024-03-07T11:50:00;100683.06;;;7.33;55.44
84760;BME280;74983;51.084;11.086;2024-03-07T11:52:27;100685.59;;;6.98;54.80
84760;BME280;74983;51.084;11.086;2024-03-07T11:54:53;100684.03;;;6.56;54.57
84760;BME280;74983;51.084;11.086;2024-03-07T11:57:22;100681.44;;;7.31;53.24
84760;BME280;74983;51.084;11.086;2024-03-07T11:59:58;100675.47;;;7.47;53.04
84760;BME280;74983;51.084;11.086;2024-03-07T12:02:26;100672.31;;;7.05;54.21
84760;BME280;74983;51.084;11.086;2024-03-07T12:04:51;100672.88;;;6.74;55.55
84760;BME280;74983;51.084;11.086;2024-03-07T12:07:16;100671.34;;;7.08;55.86
84760;BME280;74983;51.084;11.086;2024-03-07T12:09:48;100679.75;;;7.48;53.97
84760;BME280;74983;51.084;11.086;2024-03-07T12:12:19;100673.78;;;7.46;52.49
84760;BME280;74983;51.084;11.086;2024-03-07T12:14:48;100671.38;;;7.60;53.73
84760;BME280;74983;51.084;11.086;2024-03-07T12:17:16;100666.50;;;7.54;53.70
84760;BME280;74983;51.084;11.086;2024-03-07T12:19:42;100661.69;;;7.64;54.84
84760;BME280;74983;51.084;11.086;2024-03-07T12:22:09;100659.94;;;7.47;52.35
84760;BME280;74983;51.084;11.086;2024-03-07T12:24:40;100666.91;;;7.28;54.99
84760;BME280;74983;51.084;11.086;2024-03-07T12:27:12;100677.25;;;7.28;54.72
84760;BME280;74983;51.084;11.086;2024-03-07T12:29:39;100658.50;;;7.59;54.75
84760;BME280;74983;51.084;11.086;2024-03-07T12:32:06;100659.66;;;7.35;53.81
84760;BME280;74983;51.084;11.086;2024-03-07T12:34:34;100668.72;;;7.26;52.42
84760;BME280;74983;51.084;11.086;2024-03-07T12:37:03;100655.13;;;7.57;53.40
84760;BME280;74983;51.084;11.086;2024-03-07T12:39:32;100645.09;;;7.85;51.56
84760;BME280;74983;51.084;11.086;2024-03-07T12:42:02;100651.03;;;8.21;52.67
84760;BME280;74983;51.084;11.086;2024-03-07T12:44:28;100650.13;;;8.22;52.45
84760;BME280;74983;51.084;11.086;2024-03-07T12:47:04;100648.50;;;8.20;52.11
84760;BME280;74983;51.084;11.086;2024-03-07T12:49:29;100647.91;;;8.15;52.30
84760;BME280;74983;51.084;11.086;2024-03-07T12:51:55;100638.59;;;7.93;52.13